Aledo, TX (76008)

4:36 AM CDT on September 17, 2014 (GMT -0500)
LOCKDOWN21/83 | Change Station
CLOSE
Current Station
Personal Weather Station
Location: Aledo, TX
Elevation: 876 ft
Nearby Weather Stations

Elev 876 ft 32.69 °N, 97.61 °W | Updated 1 second ago

Partly Cloudy
Partly Cloudy
72.0 °F
Feels Like 72.0 °F
N
0.0
Wind Variable Wind from SE
Gusts 0.0 mph

Today
High -- | Low -- °F
--% Chance of Precip.
Yesterday
High -- | Low -- °F
Precip. -- in
7:15 AM 7:33 PM
Last Quarter, 37% visible
Pressure 29.96 in
Visibility 10.0 miles
Clouds Clear
Dew Point 69 °F
Humidity 90%
Rainfall 0.00 in
Snow Depth Not available.
UV 0 out of 12
Pollen 10.30 out of 12
Ozone Good
PM2.5 Moderate
Flu Activity Not available.
METAR KNFW 170852Z AUTO 17005KT 10SM CLR 27/21 A3000 RMK AO2 SLP143 T02670211 58012 PWINO VISNO N $

More Conditions Fewer Conditions

Pressure 29.96 in
Visibility 10.0 miles
Clouds Clear
Dew Point 69 °F
Humidity 90%
Rainfall 0.00 in
Snow Depth Not available.
UV 0 out of 12
Pollen 10.30 out of 12
Ozone Good
PM2.5 Moderate
Flu Activity Not available.
METAR KNFW 170852Z AUTO 17005KT 10SM CLR 27/21 A3000 RMK AO2 SLP143 T02670211 58012 PWINO VISNO N $

More Conditions Fewer Conditions

Nowcast | as of 4:18 am CDT on September 17, 2014

Scattered light showers will continue to develop west of a line from Breckenridge to Stephenville to Hamilton through 7 am. Rainfall amounts will be light and average less than one tenth of an inch. All precipitation will move southeast at 20 mph. The remainder of North Texas will remain cloudy and humid through sunrise with temperatures remaining in the 70s.

×

10-Day Weather Forecast

Almanac

Astronomy

Sep. 17, 2014 Rise Set
Actual Time 7:15 AM CDT 7:33 PM CDT
Civil Twilight 6:50 AM CDT 7:58 PM CDT
Nautical Twilight 6:21 AM CDT 8:27 PM CDT
Astronomical Twilight 5:52 AM CDT 8:56 PM CDT
Moon 1:30 AM CDT 3:31 PM CDT
Length of Visible Light 13h 07m
Length of Day
12h 18m
Tomorrow will be 2m 0s shorter.
Last Quarter, 37% of the Moon is Illuminated
Today
Last Quarter
Sep 24
New
Oct 1
First Quarter
Oct 8
Full
Oct 15
Last Quarter

Today's Extremes

State Highs State Lows

Community

WunderPhotos

Upload Photos

1,753,991 photos uploaded!

Nearby

Air Quality

  Air Quality AQ Index Pollutant
Yesterday Moderate
OZONE
Yesterday Moderate
PM2.5
Current Moderate
PM2.5
Current Good
OZONE
Wednesday Moderate
OZONE
Wednesday Good
PM10
Thursday Good
OZONE
Thursday Good
PM10
Friday Good
OZONE
Friday Good
PM10

Snow Depth

Station Depth Elevation
No new snow has been reported.

Earthquake Activity

City Distance Mag. Time & Date
No recent earthquake activity has been reported nearby.
Minimum magnitude displayed is 2.5.

Coastal Water Temperatures

Place Temperature
No Stations Reporting

Nearby Weather Stations